sensor_id;sensor_type;location;lat;lon;timestamp;temperature;humidity
48264;DHT22;34086;51.076;13.722;2023-03-01T00:00:50;-2.20;99.90
48264;DHT22;34086;51.076;13.722;2023-03-01T00:01:51;-2.20;99.90
48264;DHT22;34086;51.076;13.722;2023-03-01T00:02:51;-2.20;99.90
48264;DHT22;34086;51.076;13.722;2023-03-01T00:03:53;-2.20;99.90
48264;DHT22;34086;51.076;13.722;2023-03-01T00:04:54;-2.20;99.90
48264;DHT22;34086;51.076;13.722;2023-03-01T00:05:54;-2.20;99.90
48264;DHT22;34086;51.076;13.722;2023-03-01T00:06:55;-2.20;99.90
48264;DHT22;34086;51.076;13.722;2023-03-01T00:07:55;-2.20;99.90
48264;DHT22;34086;51.076;13.722;2023-03-01T00:08:56;-2.20;99.90
48264;DHT22;34086;51.076;13.722;2023-03-01T00:09:57;-2.20;99.90
48264;DHT22;34086;51.076;13.722;2023-03-01T00:11:07;-2.30;99.90
48264;DHT22;34086;51.076;13.722;2023-03-01T00:12:08;-2.20;99.90
48264;DHT22;34086;51.076;13.722;2023-03-01T00:13:08;-2.30;99.90
48264;DHT22;34086;51.076;13.722;2023-03-01T00:14:09;-2.30;99.90
48264;DHT22;34086;51.076;13.722;2023-03-01T00:15:10;-2.30;99.90
48264;DHT22;34086;51.076;13.722;2023-03-01T00:16:29;-2.30;99.90
48264;DHT22;34086;51.076;13.722;2023-03-01T00:17:30;-2.30;99.90
48264;DHT22;34086;51.076;13.722;2023-03-01T00:18:30;-2.30;99.90
48264;DHT22;34086;51.076;13.722;2023-03-01T00:19:31;-2.30;99.90
48264;DHT22;34086;51.076;13.722;2023-03-01T00:20:32;-2.30;99.90
48264;DHT22;34086;51.076;13.722;2023-03-01T00:21:33;-2.30;99.90
48264;DHT22;34086;51.076;13.722;2023-03-01T00:22:36;-2.30;99.90
48264;DHT22;34086;51.076;13.722;2023-03-01T00:23:37;-2.30;99.90
48264;DHT22;34086;51.076;13.722;2023-03-01T00:24:38;-2.40;99.90
48264;DHT22;34086;51.076;13.722;2023-03-01T00:25:42;-2.40;99.90
48264;DHT22;34086;51.076;13.722;2023-03-01T00:26:43;-2.40;99.90
48264;DHT22;34086;51.076;13.722;2023-03-01T00:27:43;-2.40;99.90
48264;DHT22;34086;51.076;13.722;2023-03-01T00:28:44;-2.40;99.90
48264;DHT22;34086;51.076;13.722;2023-03-01T00:29:45;-2.40;99.90
48264;DHT22;34086;51.076;13.722;2023-03-01T00:30:46;-2.40;99.90
48264;DHT22;34086;51.076;13.722;2023-03-01T00:31:47;-2.40;99.90
48264;DHT22;34086;51.076;13.722;2023-03-01T00:32:47;-2.40;99.90
48264;DHT22;34086;51.076;13.722;2023-03-01T00:33:50;-2.40;99.90
48264;DHT22;34086;51.076;13.722;2023-03-01T00:34:52;-2.40;99.90
48264;DHT22;34086;51.076;13.722;2023-03-01T00:35:58;-2.40;99.90
48264;DHT22;34086;51.076;13.722;2023-03-01T00:36:58;-2.40;99.90
48264;DHT22;34086;51.076;13.722;2023-03-01T00:38:05;-2.40;99.90
48264;DHT22;34086;51.076;13.722;2023-03-01T00:39:11;-2.40;99.90
48264;DHT22;34086;51.076;13.722;2023-03-01T00:40:12;-2.40;99.90
48264;DHT22;34086;51.076;13.722;2023-03-01T00:41:15;-2.50;99.90
48264;DHT22;34086;51.076;13.722;2023-03-01T00:42:16;-2.50;99.90
48264;DHT22;34086;51.076;13.722;2023-03-01T00:43:17;-2.50;99.90
48264;DHT22;34086;51.076;13.722;2023-03-01T00:44:17;-2.50;99.90
48264;DHT22;34086;51.076;13.722;2023-03-01T00:45:18;-2.50;99.90
48264;DHT22;34086;51.076;13.722;2023-03-01T00:46:21;-2.50;99.90
48264;DHT22;34086;51.076;13.722;2023-03-01T00:47:21;-2.50;99.90
48264;DHT22;34086;51.076;13.722;2023-03-01T00:48:22;-2.50;99.90
48264;DHT22;34086;51.076;13.722;2023-03-01T00:49:23;-2.50;99.90
48264;DHT22;34086;51.076;13.722;2023-03-01T00:50:24;-2.60;99.90
48264;DHT22;34086;51.076;13.722;2023-03-01T00:51:27;-2.60;99.90
48264;DHT22;34086;51.076;13.722;2023-03-01T00:52:27;-2.60;99.90
48264;DHT22;34086;51.076;13.722;2023-03-01T00:53:28;-2.60;99.90
48264;DHT22;34086;51.076;13.722;2023-03-01T00:54:29;-2.60;99.90
48264;DHT22;34086;51.076;13.722;2023-03-01T00:55:29;-2.60;99.90
48264;DHT22;34086;51.076;13.722;2023-03-01T00:56:30;-2.60;99.90
48264;DHT22;34086;51.076;13.722;2023-03-01T00:57:31;-2.60;99.90
48264;DHT22;34086;51.076;13.722;2023-03-01T00:58:33;-2.60;99.90
48264;DHT22;34086;51.076;13.722;2023-03-01T00:59:34;-2.60;99.90
48264;DHT22;34086;51.076;13.722;2023-03-01T01:00:35;-2.60;99.90
48264;DHT22;34086;51.076;13.722;2023-03-01T01:01:36;-2.70;99.90
48264;DHT22;34086;51.076;13.722;2023-03-01T01:02:37;-2.70;99.90
48264;DHT22;34086;51.076;13.722;2023-03-01T01:03:38;-2.70;99.90
48264;DHT22;34086;51.076;13.722;2023-03-01T01:04:38;-2.70;99.90
48264;DHT22;34086;51.076;13.722;2023-03-01T01:05:39;-2.70;99.90
48264;DHT22;34086;51.076;13.722;2023-03-01T01:06:45;-2.70;99.90
48264;DHT22;34086;51.076;13.722;2023-03-01T01:07:46;-2.60;99.90
48264;DHT22;34086;51.076;13.722;2023-03-01T01:08:47;-2.70;99.90
48264;DHT22;34086;51.076;13.722;2023-03-01T01:09:48;-2.70;99.90
48264;DHT22;34086;51.076;13.722;2023-03-01T01:10:48;-2.70;99.90
48264;DHT22;34086;51.076;13.722;2023-03-01T01:11:50;-2.70;99.90
48264;DHT22;34086;51.076;13.722;2023-03-01T01:12:51;-2.70;99.90
48264;DHT22;34086;51.076;13.722;2023-03-01T01:13:51;-2.70;99.90
48264;DHT22;34086;51.076;13.722;2023-03-01T01:14:52;-2.70;99.90
48264;DHT22;34086;51.076;13.722;2023-03-01T01:15:53;-2.80;99.90
48264;DHT22;34086;51.076;13.722;2023-03-01T01:16:53;-2.80;99.90
48264;DHT22;34086;51.076;13.722;2023-03-01T01:17:54;-2.80;99.90
48264;DHT22;34086;51.076;13.722;2023-03-01T01:18:56;-2.80;99.90
48264;DHT22;34086;51.076;13.722;2023-03-01T01:19:57;-2.80;99.90
48264;DHT22;34086;51.076;13.722;2023-03-01T01:20:57;-2.80;99.90
48264;DHT22;34086;51.076;13.722;2023-03-01T01:21:58;-2.80;99.90
48264;DHT22;34086;51.076;13.722;2023-03-01T01:22:58;-2.90;99.90
48264;DHT22;34086;51.076;13.722;2023-03-01T01:23:59;-2.90;99.90
48264;DHT22;34086;51.076;13.722;2023-03-01T01:25:00;-2.90;99.90
48264;DHT22;34086;51.076;13.722;2023-03-01T01:26:08;-2.90;99.90
48264;DHT22;34086;51.076;13.722;2023-03-01T01:27:08;-2.90;99.90
48264;DHT22;34086;51.076;13.722;2023-03-01T01:28:09;-2.90;99.90
48264;DHT22;34086;51.076;13.722;2023-03-01T01:29:10;-2.90;99.90
48264;DHT22;34086;51.076;13.722;2023-03-01T01:30:11;-2.90;99.90
48264;DHT22;34086;51.076;13.722;2023-03-01T01:31:12;-2.90;99.90
48264;DHT22;34086;51.076;13.722;2023-03-01T01:32:12;-2.90;99.90
48264;DHT22;34086;51.076;13.722;2023-03-01T01:33:13;-2.90;99.90
48264;DHT22;34086;51.076;13.722;2023-03-01T01:34:19;-3.00;99.90
48264;DHT22;34086;51.076;13.722;2023-03-01T01:35:20;-3.00;99.90
48264;DHT22;34086;51.076;13.722;2023-03-01T01:36:21;-3.00;99.90
48264;DHT22;34086;51.076;13.722;2023-03-01T01:37:22;-3.00;99.90
48264;DHT22;34086;51.076;13.722;2023-03-01T01:38:23;-3.00;99.90
48264;DHT22;34086;51.076;13.722;2023-03-01T01:39:23;-3.00;99.90
48264;DHT22;34086;51.076;13.722;2023-03-01T01:40:24;-3.00;99.90
48264;DHT22;34086;51.076;13.722;2023-03-01T01:41:26;-3.00;99.90
48264;DHT22;34086;51.076;13.722;2023-03-01T01:42:27;-3.00;99.90
48264;DHT22;34086;51.076;13.722;2023-03-01T01:43:34;-3.00;99.90
48264;DHT22;34086;51.076;13.722;2023-03-01T01:44:35;-3.00;99.90
48264;DHT22;34086;51.076;13.722;2023-03-01T01:45:36;-3.00;99.90
48264;DHT22;34086;51.076;13.722;2023-03-01T01:46:52;-3.00;99.90
48264;DHT22;34086;51.076;13.722;2023-03-01T01:47:55;-3.00;99.90
48264;DHT22;34086;51.076;13.722;2023-03-01T01:49:01;-3.10;99.90
48264;DHT22;34086;51.076;13.722;2023-03-01T01:50:02;-3.10;99.90
48264;DHT22;34086;51.076;13.722;2023-03-01T01:51:03;-3.10;99.90
48264;DHT22;34086;51.076;13.722;2023-03-01T01:52:29;-3.10;99.90
48264;DHT22;34086;51.076;13.722;2023-03-01T01:53:31;-3.10;99.90
48264;DHT22;34086;51.076;13.722;2023-03-01T01:54:46;-3.10;99.90
48264;DHT22;34086;51.076;13.722;2023-03-01T01:55:55;-3.10;99.90
48264;DHT22;34086;51.076;13.722;2023-03-01T01:57:02;-3.10;99.90
48264;DHT22;34086;51.076;13.722;2023-03-01T01:58:05;-3.10;99.90
48264;DHT22;34086;51.076;13.722;2023-03-01T01:59:08;-3.10;99.90
48264;DHT22;34086;51.076;13.722;2023-03-01T02:00:19;-3.10;99.90
48264;DHT22;34086;51.076;13.722;2023-03-01T02:01:20;-3.10;99.90
48264;DHT22;34086;51.076;13.722;2023-03-01T02:02:21;-3.10;99.90
48264;DHT22;34086;51.076;13.722;2023-03-01T02:03:25;-3.10;99.90
48264;DHT22;34086;51.076;13.722;2023-03-01T02:04:30;-3.10;99.90
48264;DHT22;34086;51.076;13.722;2023-03-01T02:05:46;-3.10;99.90
48264;DHT22;34086;51.076;13.722;2023-03-01T02:07:05;-3.10;99.90
48264;DHT22;34086;51.076;13.722;2023-03-01T02:08:08;-3.10;99.90
48264;DHT22;34086;51.076;13.722;2023-03-01T02:09:14;-3.10;99.90
48264;DHT22;34086;51.076;13.722;2023-03-01T02:10:16;-3.10;99.90
48264;DHT22;34086;51.076;13.722;2023-03-01T02:11:17;-3.10;99.90
48264;DHT22;34086;51.076;13.722;2023-03-01T02:12:21;-3.10;99.90
48264;DHT22;34086;51.076;13.722;2023-03-01T02:13:23;-3.10;99.90
48264;DHT22;34086;51.076;13.722;2023-03-01T02:14:24;-3.10;99.90
48264;DHT22;34086;51.076;13.722;2023-03-01T02:15:24;-3.10;99.90
48264;DHT22;34086;51.076;13.722;2023-03-01T02:16:27;-3.10;99.90
48264;DHT22;34086;51.076;13.722;2023-03-01T02:17:29;-3.20;99.90
48264;DHT22;34086;51.076;13.722;2023-03-01T02:18:30;-3.20;99.90
48264;DHT22;34086;51.076;13.722;2023-03-01T02:19:43;-3.10;99.90
48264;DHT22;34086;51.076;13.722;2023-03-01T02:22:31;-3.20;99.90
48264;DHT22;34086;51.076;13.722;2023-03-01T02:23:33;-3.20;99.90
48264;DHT22;34086;51.076;13.722;2023-03-01T02:26:00;-3.20;99.90
48264;DHT22;34086;51.076;13.722;2023-03-01T02:27:02;-3.20;99.90
48264;DHT22;34086;51.076;13.722;2023-03-01T02:29:12;-3.20;99.90
48264;DHT22;34086;51.076;13.722;2023-03-01T02:30:12;-3.20;99.90
48264;DHT22;34086;51.076;13.722;2023-03-01T02:31:16;-3.20;99.90
48264;DHT22;34086;51.076;13.722;2023-03-01T02:32:35;-3.20;99.90
48264;DHT22;34086;51.076;13.722;2023-03-01T02:33:38;-3.20;99.90
48264;DHT22;34086;51.076;13.722;2023-03-01T02:34:39;-3.20;99.90
48264;DHT22;34086;51.076;13.722;2023-03-01T02:35:40;-3.20;99.90
48264;DHT22;34086;51.076;13.722;2023-03-01T02:36:45;-3.20;99.90
48264;DHT22;34086;51.076;13.722;2023-03-01T02:37:48;-3.20;99.90
48264;DHT22;34086;51.076;13.722;2023-03-01T02:38:50;-3.30;99.90
48264;DHT22;34086;51.076;13.722;2023-03-01T02:39:57;-3.30;99.90
48264;DHT22;34086;51.076;13.722;2023-03-01T02:40:59;-3.30;99.90
48264;DHT22;34086;51.076;13.722;2023-03-01T02:42:02;-3.30;99.90
48264;DHT22;34086;51.076;13.722;2023-03-01T02:43:06;-3.30;99.90
48264;DHT22;34086;51.076;13.722;2023-03-01T02:44:09;-3.30;99.90
48264;DHT22;34086;51.076;13.722;2023-03-01T02:45:09;-3.30;99.90
48264;DHT22;34086;51.076;13.722;2023-03-01T02:46:20;-3.30;99.90
48264;DHT22;34086;51.076;13.722;2023-03-01T02:47:21;-3.30;99.90
48264;DHT22;34086;51.076;13.722;2023-03-01T02:48:22;-3.30;99.90
48264;DHT22;34086;51.076;13.722;2023-03-01T02:49:28;-3.30;99.90
48264;DHT22;34086;51.076;13.722;2023-03-01T02:52:47;-3.30;99.90
48264;DHT22;34086;51.076;13.722;2023-03-01T02:54:12;-3.30;99.90
48264;DHT22;34086;51.076;13.722;2023-03-01T02:55:17;-3.30;99.90
48264;DHT22;34086;51.076;13.722;2023-03-01T02:56:18;-3.30;99.90
48264;DHT22;34086;51.076;13.722;2023-03-01T02:57:19;-3.30;99.90
48264;DHT22;34086;51.076;13.722;2023-03-01T02:58:22;-3.40;99.90
48264;DHT22;34086;51.076;13.722;2023-03-01T02:59:26;-3.40;99.90
48264;DHT22;34086;51.076;13.722;2023-03-01T03:00:33;-3.40;99.90
48264;DHT22;34086;51.076;13.722;2023-03-01T03:01:34;-3.40;99.90
48264;DHT22;34086;51.076;13.722;2023-03-01T03:02:40;-3.40;99.90
48264;DHT22;34086;51.076;13.722;2023-03-01T03:03:52;-3.40;99.90
48264;DHT22;34086;51.076;13.722;2023-03-01T03:04:52;-3.40;99.90
48264;DHT22;34086;51.076;13.722;2023-03-01T03:05:53;-3.50;99.90
48264;DHT22;34086;51.076;13.722;2023-03-01T03:06:54;-3.50;99.90
48264;DHT22;34086;51.076;13.722;2023-03-01T03:07:55;-3.50;99.90
48264;DHT22;34086;51.076;13.722;2023-03-01T03:08:56;-3.50;99.90
48264;DHT22;34086;51.076;13.722;2023-03-01T03:09:57;-3.50;99.90
48264;DHT22;34086;51.076;13.722;2023-03-01T03:10:57;-3.50;99.90
48264;DHT22;34086;51.076;13.722;2023-03-01T03:11:58;-3.50;99.90
48264;DHT22;34086;51.076;13.722;2023-03-01T03:13:07;-3.50;99.90
48264;DHT22;34086;51.076;13.722;2023-03-01T03:14:10;-3.50;99.90
48264;DHT22;34086;51.076;13.722;2023-03-01T03:15:13;-3.50;99.90
48264;DHT22;34086;51.076;13.722;2023-03-01T03:16:14;-3.50;99.90
48264;DHT22;34086;51.076;13.722;2023-03-01T03:17:15;-3.50;99.90
48264;DHT22;34086;51.076;13.722;2023-03-01T03:18:16;-3.50;99.90
48264;DHT22;34086;51.076;13.722;2023-03-01T03:19:19;-3.60;99.90
48264;DHT22;34086;51.076;13.722;2023-03-01T03:20:22;-3.60;99.90
48264;DHT22;34086;51.076;13.722;2023-03-01T03:21:23;-3.60;99.90
48264;DHT22;34086;51.076;13.722;2023-03-01T03:22:24;-3.60;99.90
48264;DHT22;34086;51.076;13.722;2023-03-01T03:23:24;-3.60;99.90
48264;DHT22;34086;51.076;13.722;2023-03-01T03:24:25;-3.60;99.90
48264;DHT22;34086;51.076;13.722;2023-03-01T03:25:26;-3.60;99.90
48264;DHT22;34086;51.076;13.722;2023-03-01T03:26:28;-3.60;99.90
48264;DHT22;34086;51.076;13.722;2023-03-01T03:27:28;-3.70;99.90
48264;DHT22;34086;51.076;13.722;2023-03-01T03:28:29;-3.70;99.90
48264;DHT22;34086;51.076;13.722;2023-03-01T03:29:31;-3.60;99.90
48264;DHT22;34086;51.076;13.722;2023-03-01T03:30:31;-3.70;99.90
48264;DHT22;34086;51.076;13.722;2023-03-01T03:31:32;-3.70;99.90
48264;DHT22;34086;51.076;13.722;2023-03-01T03:32:32;-3.70;99.90
48264;DHT22;34086;51.076;13.722;2023-03-01T03:33:33;-3.70;99.90
48264;DHT22;34086;51.076;13.722;2023-03-01T03:34:33;-3.60;99.90
48264;DHT22;34086;51.076;13.722;2023-03-01T03:35:40;-3.60;99.90
48264;DHT22;34086;51.076;13.722;2023-03-01T03:36:41;-3.60;99.90
48264;DHT22;34086;51.076;13.722;2023-03-01T03:37:41;-3.60;99.90
48264;DHT22;34086;51.076;13.722;2023-03-01T03:39:01;-3.60;99.90
48264;DHT22;34086;51.076;13.722;2023-03-01T03:40:01;-3.60;99.90
48264;DHT22;34086;51.076;13.722;2023-03-01T03:41:07;-3.60;99.90
48264;DHT22;34086;51.076;13.722;2023-03-01T03:42:08;-3.60;99.90
48264;DHT22;34086;51.076;13.722;2023-03-01T03:43:12;-3.60;99.90
48264;DHT22;34086;51.076;13.722;2023-03-01T03:44:14;-3.70;99.90
48264;DHT22;34086;51.076;13.722;2023-03-01T03:45:16;-3.70;99.90
48264;DHT22;34086;51.076;13.722;2023-03-01T03:46:16;-3.70;99.90
48264;DHT22;34086;51.076;13.722;2023-03-01T03:47:17;-3.70;99.90
48264;DHT22;34086;51.076;13.722;2023-03-01T03:48:18;-3.70;99.90
48264;DHT22;34086;51.076;13.722;2023-03-01T03:49:18;-3.70;99.90
48264;DHT22;34086;51.076;13.722;2023-03-01T03:50:19;-3.80;99.90
48264;DHT22;34086;51.076;13.722;2023-03-01T03:51:20;-3.80;99.90
48264;DHT22;34086;51.076;13.722;2023-03-01T03:52:22;-3.80;99.90
48264;DHT22;34086;51.076;13.722;2023-03-01T03:53:25;-3.80;99.90
48264;DHT22;34086;51.076;13.722;2023-03-01T03:54:26;-3.80;99.90
48264;DHT22;34086;51.076;13.722;2023-03-01T03:55:26;-3.80;99.90
48264;DHT22;34086;51.076;13.722;2023-03-01T03:56:30;-3.80;99.90
48264;DHT22;34086;51.076;13.722;2023-03-01T03:57:31;-3.80;99.90
48264;DHT22;34086;51.076;13.722;2023-03-01T03:58:31;-3.80;99.90
48264;DHT22;34086;51.076;13.722;2023-03-01T03:59:32;-3.80;99.90
48264;DHT22;34086;51.076;13.722;2023-03-01T04:00:34;-3.80;99.90
48264;DHT22;34086;51.076;13.722;2023-03-01T04:01:35;-3.80;99.90
48264;DHT22;34086;51.076;13.722;2023-03-01T04:02:36;-3.80;99.90
48264;DHT22;34086;51.076;13.722;2023-03-01T04:03:36;-3.80;99.90
48264;DHT22;34086;51.076;13.722;2023-03-01T04:04:37;-3.80;99.90
48264;DHT22;34086;51.076;13.722;2023-03-01T04:05:38;-3.80;99.90
48264;DHT22;34086;51.076;13.722;2023-03-01T04:06:39;-3.90;99.90
48264;DHT22;34086;51.076;13.722;2023-03-01T04:07:41;-3.90;99.90
48264;DHT22;34086;51.076;13.722;2023-03-01T04:08:42;-3.90;99.90
48264;DHT22;34086;51.076;13.722;2023-03-01T04:09:43;-3.90;99.90
48264;DHT22;34086;51.076;13.722;2023-03-01T04:10:45;-3.90;99.90
48264;DHT22;34086;51.076;13.722;2023-03-01T04:11:46;-3.90;99.90
48264;DHT22;34086;51.076;13.722;2023-03-01T04:12:46;-3.90;99.90
48264;DHT22;34086;51.076;13.722;2023-03-01T04:13:47;-3.90;99.90
48264;DHT22;34086;51.076;13.722;2023-03-01T04:14:48;-3.90;99.90
48264;DHT22;34086;51.076;13.722;2023-03-01T04:15:49;-3.90;99.90
48264;DHT22;34086;51.076;13.722;2023-03-01T04:16:51;-3.90;99.90
48264;DHT22;34086;51.076;13.722;2023-03-01T04:17:52;-4.00;99.90
48264;DHT22;34086;51.076;13.722;2023-03-01T04:18:53;-4.00;99.90
48264;DHT22;34086;51.076;13.722;2023-03-01T04:19:53;-4.00;99.90
48264;DHT22;34086;51.076;13.722;2023-03-01T04:20:54;-4.00;99.90
48264;DHT22;34086;51.076;13.722;2023-03-01T04:21:55;-4.00;99.90
48264;DHT22;34086;51.076;13.722;2023-03-01T04:23:01;-4.00;99.90
48264;DHT22;34086;51.076;13.722;2023-03-01T04:24:10;-4.00;99.90
48264;DHT22;34086;51.076;13.722;2023-03-01T04:25:11;-4.10;99.90
48264;DHT22;34086;51.076;13.722;2023-03-01T04:26:14;-4.10;99.90
48264;DHT22;34086;51.076;13.722;2023-03-01T04:27:14;-4.10;99.90
48264;DHT22;34086;51.076;13.722;2023-03-01T04:28:15;-4.10;99.90
48264;DHT22;34086;51.076;13.722;2023-03-01T04:29:16;-4.10;99.90
48264;DHT22;34086;51.076;13.722;2023-03-01T04:30:17;-4.10;99.90
48264;DHT22;34086;51.076;13.722;2023-03-01T04:31:19;-4.10;99.90
48264;DHT22;34086;51.076;13.722;2023-03-01T04:32:21;-4.10;99.90
48264;DHT22;34086;51.076;13.722;2023-03-01T04:33:22;-4.10;99.90
48264;DHT22;34086;51.076;13.722;2023-03-01T04:34:23;-4.10;99.90
48264;DHT22;34086;51.076;13.722;2023-03-01T04:35:24;-4.10;99.90
48264;DHT22;34086;51.076;13.722;2023-03-01T04:36:27;-4.10;99.90
48264;DHT22;34086;51.076;13.722;2023-03-01T04:37:28;-4.10;99.90
48264;DHT22;34086;51.076;13.722;2023-03-01T04:38:29;-4.10;99.90
48264;DHT22;34086;51.076;13.722;2023-03-01T04:39:30;-4.10;99.90
48264;DHT22;34086;51.076;13.722;2023-03-01T04:40:31;-4.10;99.90
48264;DHT22;34086;51.076;13.722;2023-03-01T04:41:32;-4.10;99.90
48264;DHT22;34086;51.076;13.722;2023-03-01T04:42:32;-4.10;99.90
48264;DHT22;34086;51.076;13.722;2023-03-01T04:43:33;-4.10;99.90
48264;DHT22;34086;51.076;13.722;2023-03-01T04:44:34;-4.20;99.90
48264;DHT22;34086;51.076;13.722;2023-03-01T04:45:35;-4.20;99.90
48264;DHT22;34086;51.076;13.722;2023-03-01T04:46:36;-4.20;99.90
48264;DHT22;34086;51.076;13.722;2023-03-01T04:47:36;-4.20;99.90
48264;DHT22;34086;51.076;13.722;2023-03-01T04:48:39;-4.20;99.90
48264;DHT22;34086;51.076;13.722;2023-03-01T04:49:40;-4.20;99.90
48264;DHT22;34086;51.076;13.722;2023-03-01T04:50:40;-4.20;99.90
48264;DHT22;34086;51.076;13.722;2023-03-01T04:51:41;-4.20;99.90
48264;DHT22;34086;51.076;13.722;2023-03-01T04:52:42;-4.20;99.90
48264;DHT22;34086;51.076;13.722;2023-03-01T04:53:43;-4.20;99.90
48264;DHT22;34086;51.076;13.722;2023-03-01T04:54:44;-4.20;99.90
48264;DHT22;34086;51.076;13.722;2023-03-01T04:55:44;-4.20;99.90
48264;DHT22;34086;51.076;13.722;2023-03-01T04:56:45;-4.20;99.90
48264;DHT22;34086;51.076;13.722;2023-03-01T04:57:46;-4.20;99.90
48264;DHT22;34086;51.076;13.722;2023-03-01T04:58:46;-4.20;99.90
48264;DHT22;34086;51.076;13.722;2023-03-01T04:59:47;-4.20;99.90
48264;DHT22;34086;51.076;13.722;2023-03-01T05:00:47;-4.20;99.90
48264;DHT22;34086;51.076;13.722;2023-03-01T05:01:55;-4.20;99.90
48264;DHT22;34086;51.076;13.722;2023-03-01T05:02:59;-4.20;99.90
48264;DHT22;34086;51.076;13.722;2023-03-01T05:04:00;-4.20;99.90
48264;DHT22;34086;51.076;13.722;2023-03-01T05:05:03;-4.20;99.90
48264;DHT22;34086;51.076;13.722;2023-03-01T05:06:04;-4.20;99.90
48264;DHT22;34086;51.076;13.722;2023-03-01T05:07:05;-4.30;99.90
48264;DHT22;34086;51.076;13.722;2023-03-01T05:08:07;-4.30;99.90
48264;DHT22;34086;51.076;13.722;2023-03-01T05:09:08;-4.30;99.90
48264;DHT22;34086;51.076;13.722;2023-03-01T05:10:09;-4.30;99.90
48264;DHT22;34086;51.076;13.722;2023-03-01T05:11:10;-4.30;99.90
48264;DHT22;34086;51.076;13.722;2023-03-01T05:12:11;-4.30;99.90
48264;DHT22;34086;51.076;13.722;2023-03-01T05:13:13;-4.30;99.90
48264;DHT22;34086;51.076;13.722;2023-03-01T05:14:15;-4.30;99.90
48264;DHT22;34086;51.076;13.722;2023-03-01T05:15:16;-4.30;99.90
48264;DHT22;34086;51.076;13.722;2023-03-01T05:16:16;-4.30;99.90
48264;DHT22;34086;51.076;13.722;2023-03-01T05:17:17;-4.30;99.90
48264;DHT22;34086;51.076;13.722;2023-03-01T05:18:17;-4.30;99.90
48264;DHT22;34086;51.076;13.722;2023-03-01T05:19:18;-4.30;99.90
48264;DHT22;34086;51.076;13.722;2023-03-01T05:20:22;-4.30;99.90
48264;DHT22;34086;51.076;13.722;2023-03-01T05:21:23;-4.30;99.90
48264;DHT22;34086;51.076;13.722;2023-03-01T05:22:23;-4.30;99.90
48264;DHT22;34086;51.076;13.722;2023-03-01T05:23:24;-4.30;99.90
48264;DHT22;34086;51.076;13.722;2023-03-01T05:24:25;-4.30;99.90
48264;DHT22;34086;51.076;13.722;2023-03-01T05:25:27;-4.30;99.90
48264;DHT22;34086;51.076;13.722;2023-03-01T05:26:27;-4.30;99.90
48264;DHT22;34086;51.076;13.722;2023-03-01T05:27:29;-4.30;99.90
48264;DHT22;34086;51.076;13.722;2023-03-01T05:28:30;-4.40;99.90
48264;DHT22;34086;51.076;13.722;2023-03-01T05:29:31;-4.40;99.90
48264;DHT22;34086;51.076;13.722;2023-03-01T05:30:35;-4.40;99.90
48264;DHT22;34086;51.076;13.722;2023-03-01T05:31:35;-4.40;99.90
48264;DHT22;34086;51.076;13.722;2023-03-01T05:32:39;-4.40;99.90
48264;DHT22;34086;51.076;13.722;2023-03-01T05:33:40;-4.40;99.90
48264;DHT22;34086;51.076;13.722;2023-03-01T05:34:41;-4.40;99.90
48264;DHT22;34086;51.076;13.722;2023-03-01T05:35:43;-4.40;99.90
48264;DHT22;34086;51.076;13.722;2023-03-01T05:36:44;-4.40;99.90
48264;DHT22;34086;51.076;13.722;2023-03-01T05:37:47;-4.40;99.90
48264;DHT22;34086;51.076;13.722;2023-03-01T05:38:47;-4.40;99.90
48264;DHT22;34086;51.076;13.722;2023-03-01T05:39:48;-4.40;99.90
48264;DHT22;34086;51.076;13.722;2023-03-01T05:40:50;-4.40;99.90
48264;DHT22;34086;51.076;13.722;2023-03-01T05:41:56;-4.40;99.90
48264;DHT22;34086;51.076;13.722;2023-03-01T05:42:57;-4.40;99.90
48264;DHT22;34086;51.076;13.722;2023-03-01T05:43:57;-4.40;99.90
48264;DHT22;34086;51.076;13.722;2023-03-01T05:44:58;-4.40;99.90
48264;DHT22;34086;51.076;13.722;2023-03-01T05:45:59;-4.40;99.90
48264;DHT22;34086;51.076;13.722;2023-03-01T05:47:00;-4.40;99.90
48264;DHT22;34086;51.076;13.722;2023-03-01T05:48:00;-4.40;99.90
48264;DHT22;34086;51.076;13.722;2023-03-01T05:49:01;-4.40;99.90
48264;DHT22;34086;51.076;13.722;2023-03-01T05:50:02;-4.40;99.90
48264;DHT22;34086;51.076;13.722;2023-03-01T05:51:03;-4.40;99.90
48264;DHT22;34086;51.076;13.722;2023-03-01T05:52:04;-4.40;99.90
48264;DHT22;34086;51.076;13.722;2023-03-01T05:53:06;-4.40;99.90
48264;DHT22;34086;51.076;13.722;2023-03-01T05:54:08;-4.40;99.90
48264;DHT22;34086;51.076;13.722;2023-03-01T05:55:09;-4.40;99.90
48264;DHT22;34086;51.076;13.722;2023-03-01T05:56:10;-4.40;99.90
48264;DHT22;34086;51.076;13.722;2023-03-01T05:57:11;-4.40;99.90
48264;DHT22;34086;51.076;13.722;2023-03-01T05:58:16;-4.40;99.90
48264;DHT22;34086;51.076;13.722;2023-03-01T05:59:17;-4.40;99.90
48264;DHT22;34086;51.076;13.722;2023-03-01T06:00:20;-4.40;99.90
48264;DHT22;34086;51.076;13.722;2023-03-01T06:01:22;-4.40;99.90
48264;DHT22;34086;51.076;13.722;2023-03-01T06:02:23;-4.30;99.90
48264;DHT22;34086;51.076;13.722;2023-03-01T06:03:23;-4.30;99.90
48264;DHT22;34086;51.076;13.722;2023-03-01T06:04:24;-4.30;99.90
48264;DHT22;34086;51.076;13.722;2023-03-01T06:05:25;-4.30;99.90
48264;DHT22;34086;51.076;13.722;2023-03-01T06:06:26;-4.30;99.90
48264;DHT22;34086;51.076;13.722;2023-03-01T06:07:26;-4.30;99.90
48264;DHT22;34086;51.076;13.722;2023-03-01T06:08:27;-4.30;99.90
48264;DHT22;34086;51.076;13.722;2023-03-01T06:09:27;-4.30;99.90
48264;DHT22;34086;51.076;13.722;2023-03-01T06:10:28;-4.30;99.90
48264;DHT22;34086;51.076;13.722;2023-03-01T06:11:29;-4.30;99.90
48264;DHT22;34086;51.076;13.722;2023-03-01T06:12:31;-4.30;99.90
48264;DHT22;34086;51.076;13.722;2023-03-01T06:13:32;-4.20;99.90
48264;DHT22;34086;51.076;13.722;2023-03-01T06:14:32;-4.30;99.90
48264;DHT22;34086;51.076;13.722;2023-03-01T06:15:33;-4.20;99.90
48264;DHT22;34086;51.076;13.722;2023-03-01T06:16:33;-4.20;99.90
48264;DHT22;34086;51.076;13.722;2023-03-01T06:17:35;-4.20;99.90
48264;DHT22;34086;51.076;13.722;2023-03-01T06:18:38;-4.20;99.90
48264;DHT22;34086;51.076;13.722;2023-03-01T06:19:38;-4.20;99.90
48264;DHT22;34086;51.076;13.722;2023-03-01T06:20:39;-4.20;99.90
48264;DHT22;34086;51.076;13.722;2023-03-01T06:21:40;-4.20;99.90
48264;DHT22;34086;51.076;13.722;2023-03-01T06:22:41;-4.10;99.90
48264;DHT22;34086;51.076;13.722;2023-03-01T06:23:42;-4.20;99.90
48264;DHT22;34086;51.076;13.722;2023-03-01T06:24:42;-4.10;99.90
48264;DHT22;34086;51.076;13.722;2023-03-01T06:25:43;-4.10;99.90
48264;DHT22;34086;51.076;13.722;2023-03-01T06:26:43;-4.10;99.90
48264;DHT22;34086;51.076;13.722;2023-03-01T06:27:44;-4.10;99.90
48264;DHT22;34086;51.076;13.722;2023-03-01T06:28:45;-4.10;99.90
48264;DHT22;34086;51.076;13.722;2023-03-01T06:29:46;-4.10;99.90
48264;DHT22;34086;51.076;13.722;2023-03-01T06:30:47;-4.10;99.90
48264;DHT22;34086;51.076;13.722;2023-03-01T06:31:48;-4.10;99.90
48264;DHT22;34086;51.076;13.722;2023-03-01T06:32:49;-4.10;99.90